Time;durP1;ratioP1;P1;durP2;ratioP2;P2;SDS_P1;SDS_P2;PMS_P1;PMS_P2;Temp;Humidity;BMP_temperature;BMP_pressure;BME280_temperature;BME280_humidity;BME280_pressure;Samples;Min_cycle;Max_cycle;Signal;HPM_P1;HPM_P2
2021/10/29 00:00:21;;;;;;;36.98;29.50;;;;;;;6.62;89.30;99932.07;1753816;78;21782;-85
2021/10/29 00:02:54;;;;;;;37.00;29.48;;;;;;;6.62;89.39;99924.28;1800043;78;21485;-85
2021/10/29 00:08:15;;;;;;;38.73;29.57;;;;;;;6.61;89.34;99923.86;1773560;78;20954;-85
2021/10/29 00:11:21;;;;;;;42.05;28.30;;;;;;;6.59;89.30;99925.22;1796983;78;21749;-84
2021/10/29 00:13:57;;;;;;;39.18;29.27;;;;;;;6.58;89.36;99918.34;1798969;78;21094;-85
2021/10/29 00:19:28;;;;;;;40.38;30.72;;;;;;;6.57;89.45;99913.18;1681820;84;20095;-84
2021/10/29 00:22:09;;;;;;;43.30;30.00;;;;;;;6.56;89.45;99910.20;1692748;82;21052;-84
2021/10/29 00:24:45;;;;;;;34.25;27.17;;;;;;;6.53;89.37;99908.53;1692415;82;21460;-85
2021/10/29 00:27:28;;;;;;;42.10;30.37;;;;;;;6.52;89.44;99909.86;1678191;84;21096;-84
2021/10/29 00:33:06;;;;;;;39.25;28.05;;;;;;;6.47;89.36;99904.81;1754180;79;21017;-85
2021/10/29 00:35:48;;;;;;;40.43;29.32;;;;;;;6.45;89.35;99898.81;1727142;82;21092;-84
2021/10/29 00:38:19;;;;;;;41.23;27.52;;;;;;;6.40;89.28;99898.93;1690462;82;21601;-84
2021/10/29 00:40:53;;;;;;;41.53;28.42;;;;;;;6.36;89.30;99893.85;1759668;81;21733;-84
2021/10/29 00:43:21;;;;;;;39.65;28.23;;;;;;;6.33;89.27;99893.52;1755277;81;21152;-83
2021/10/29 00:45:52;;;;;;;38.13;27.95;;;;;;;6.30;89.37;99892.28;1760757;79;21258;-84
2021/10/29 00:48:26;;;;;;;39.40;26.68;;;;;;;6.28;89.36;99885.01;1763341;79;20967;-84
2021/10/29 00:50:56;;;;;;;38.70;27.60;;;;;;;6.26;89.40;99881.59;1733497;79;21172;-84
2021/10/29 00:53:24;;;;;;;40.10;28.70;;;;;;;6.24;89.33;99884.67;1734307;79;21107;-83
2021/10/29 00:55:56;;;;;;;39.13;28.60;;;;;;;6.22;89.39;99885.18;1761403;79;21105;-84
2021/10/29 00:58:24;;;;;;;42.27;27.65;;;;;;;6.21;89.42;99883.45;1770203;79;21052;-89
2021/10/29 01:00:53;;;;;;;34.65;26.35;;;;;;;6.20;89.47;99873.98;1768659;79;21083;-90
2021/10/29 01:03:25;;;;;;;39.15;29.15;;;;;;;6.20;89.42;99875.28;1766458;79;21660;-90
2021/10/29 01:05:54;;;;;;;39.70;27.02;;;;;;;6.18;89.37;99870.58;1765630;79;21233;-91
2021/10/29 01:08:30;;;;;;;38.85;27.77;;;;;;;6.16;89.36;99864.58;1763336;79;21045;-91
2021/10/29 01:10:57;;;;;;;39.25;28.17;;;;;;;6.14;89.36;99865.93;1735780;81;21042;-91
2021/10/29 01:13:29;;;;;;;36.10;26.95;;;;;;;6.14;89.43;99862.50;1764493;79;21069;-90
2021/10/29 01:15:59;;;;;;;34.15;27.13;;;;;;;6.13;89.40;99853.00;1761845;79;21611;-90
2021/10/29 01:18:29;;;;;;;36.75;26.75;;;;;;;6.11;89.44;99854.80;1764705;79;21017;-90
2021/10/29 01:20:57;;;;;;;34.95;26.50;;;;;;;6.10;89.41;99853.08;1764717;79;21007;-90
2021/10/29 01:23:27;;;;;;;36.83;26.07;;;;;;;6.09;89.49;99841.02;1702230;81;21604;-89
2021/10/29 01:26:12;;;;;;;41.02;27.98;;;;;;;6.10;89.52;99842.71;1760340;79;21639;-90
2021/10/29 01:28:38;;;;;;;36.63;28.02;;;;;;;6.08;89.51;99840.18;1745847;79;21096;-91
2021/10/29 01:31:07;;;;;;;36.53;28.17;;;;;;;6.11;89.65;99849.62;1757555;79;21173;-91
2021/10/29 01:33:38;;;;;;;37.53;27.15;;;;;;;6.13;89.69;99840.03;1696454;82;21033;-90
2021/10/29 01:36:12;;;;;;;36.73;27.40;;;;;;;6.15;89.62;99840.84;1756051;79;20910;-90
2021/10/29 01:38:56;;;;;;;38.23;27.05;;;;;;;6.16;89.54;99842.54;1760833;79;21012;-90
2021/10/29 01:41:33;;;;;;;38.05;26.30;;;;;;;6.14;89.47;99833.98;1758420;79;21009;-90
2021/10/29 01:44:18;;;;;;;40.55;27.52;;;;;;;6.14;89.52;99828.80;1757575;79;21069;-90
2021/10/29 01:46:46;;;;;;;33.70;25.92;;;;;;;6.14;89.55;99828.34;1723629;82;21006;-89
2021/10/29 01:49:28;;;;;;;37.63;28.05;;;;;;;6.13;89.48;99824.48;1722039;81;21662;-90
2021/10/29 01:51:56;;;;;;;38.15;26.50;;;;;;;6.14;89.55;99810.64;1765303;79;21820;-89
2021/10/29 01:54:36;;;;;;;38.88;26.75;;;;;;;6.16;89.58;99819.20;1751293;79;20973;-89
2021/10/29 01:57:28;;;;;;;37.42;26.42;;;;;;;6.17;89.58;99811.86;1757200;80;21028;-89
2021/10/29 02:00:03;;;;;;;40.00;28.15;;;;;;;6.17;89.70;99807.97;1759311;80;20969;-90
2021/10/29 02:02:30;;;;;;;37.88;27.75;;;;;;;6.21;89.62;99803.92;1760370;79;20990;-90
2021/10/29 02:04:57;;;;;;;40.45;27.10;;;;;;;6.21;89.54;99804.38;1764039;79;21101;-90
2021/10/29 02:07:24;;;;;;;39.90;27.85;;;;;;;6.20;89.36;99802.69;1759660;80;20946;-90
2021/10/29 02:09:50;;;;;;;38.25;26.37;;;;;;;6.15;89.32;99800.67;1756186;79;21056;-91
2021/10/29 02:12:17;;;;;;;40.28;26.30;;;;;;;6.13;89.34;99806.33;1753653;79;20962;-92
2021/10/29 02:14:43;;;;;;;38.73;26.87;;;;;;;6.11;89.27;99797.77;1753228;80;21147;-91
2021/10/29 02:17:11;;;;;;;38.80;26.27;;;;;;;6.10;89.36;99798.64;1755863;80;20938;-90
2021/10/29 02:19:37;;;;;;;39.03;26.15;;;;;;;6.09;89.23;99791.77;1757329;79;21092;-91
2021/10/29 02:22:04;;;;;;;36.08;26.10;;;;;;;6.07;89.23;99785.77;1757882;79;21080;-90
2021/10/29 02:24:31;;;;;;;33.38;25.52;;;;;;;6.03;89.22;99789.75;1754437;79;20997;-93
2021/10/29 02:26:58;;;;;;;35.88;26.75;;;;;;;6.01;89.14;99778.56;1749844;80;20973;-91
2021/10/29 02:29:25;;;;;;;33.73;24.35;;;;;;;5.98;89.08;99787.72;1730759;82;21065;-90
2021/10/29 02:31:51;;;;;;;34.63;23.63;;;;;;;5.94;89.04;99787.41;1758117;81;21552;-90
2021/10/29 02:34:19;;;;;;;36.35;25.75;;;;;;;5.90;89.06;99788.79;1764536;79;21140;-90
2021/10/29 02:36:45;;;;;;;35.15;25.70;;;;;;;5.86;88.99;99785.44;1762313;81;21060;-90
2021/10/29 02:39:12;;;;;;;36.55;25.80;;;;;;;5.85;89.10;99787.61;1762432;79;20971;-89
2021/10/29 02:41:38;;;;;;;35.58;24.85;;;;;;;5.83;89.17;99783.78;1756597;79;21701;-90
2021/10/29 02:44:05;;;;;;;37.70;25.32;;;;;;;5.86;89.25;99782.00;1765643;78;22225;-90
2021/10/29 02:46:32;;;;;;;37.55;24.77;;;;;;;5.86;89.16;99782.00;1756763;79;21787;-90
2021/10/29 02:48:58;;;;;;;31.10;23.38;;;;;;;5.85;89.09;99778.54;1739495;79;20941;-91
2021/10/29 02:51:25;;;;;;;35.13;25.32;;;;;;;5.83;89.05;99779.05;1756890;79;20933;-90
2021/10/29 02:53:53;;;;;;;36.20;23.95;;;;;;;5.83;89.06;99777.30;1762879;80;20943;-89
2021/10/29 02:56:19;;;;;;;33.45;23.92;;;;;;;5.81;88.98;99774.34;1764084;79;20969;-90
2021/10/29 02:58:46;;;;;;;34.55;25.05;;;;;;;5.82;89.00;99774.73;1760643;79;21077;-90
2021/10/29 03:01:12;;;;;;;32.83;24.25;;;;;;;5.82;89.01;99774.73;1763977;80;20942;-91
2021/10/29 03:03:39;;;;;;;33.02;24.00;;;;;;;5.80;88.92;99772.66;1761690;79;20993;-91
2021/10/29 03:06:06;;;;;;;33.67;24.00;;;;;;;5.80;88.90;99773.95;1762126;79;21017;-91
2021/10/29 03:08:33;;;;;;;32.42;23.32;;;;;;;5.78;88.84;99777.02;1760573;79;20942;-90
2021/10/29 03:10:59;;;;;;;35.73;24.92;;;;;;;5.78;88.91;99774.43;1762878;79;21065;-90
2021/10/29 03:13:27;;;;;;;33.55;23.32;;;;;;;5.78;88.86;99774.43;1759777;79;21074;-91
2021/10/29 03:15:54;;;;;;;35.38;22.62;;;;;;;5.75;88.75;99770.17;1763818;79;27552;-91
2021/10/29 03:18:21;;;;;;;33.05;23.18;;;;;;;5.72;88.72;99777.19;1757606;80;21341;-90
2021/10/29 03:20:48;;;;;;;27.22;22.02;;;;;;;5.70;88.67;99775.08;1762569;79;21018;-89
2021/10/29 03:23:16;;;;;;;34.40;23.50;;;;;;;5.67;88.68;99771.28;1758852;80;22582;-91
2021/10/29 03:25:43;;;;;;;;;;;;;;;5.64;88.68;99771.36;1765722;79;20979;-90
2021/10/29 03:28:10;;;;;;;34.18;25.17;;;;;;;5.63;88.76;99770.52;1758689;79;20192;-90
2021/10/29 03:30:37;;;;;;;37.78;25.43;;;;;;;5.61;88.74;99756.75;1755648;79;21643;-89
2021/10/29 03:33:04;;;;;;;35.20;23.75;;;;;;;5.59;88.68;99755.48;1762775;79;20961;-90
2021/10/29 03:35:31;;;;;;;33.50;24.73;;;;;;;5.56;88.63;99759.45;1756432;80;21132;-90
2021/10/29 03:38:09;;;;;;;35.00;23.62;;;;;;;5.53;88.63;99751.76;1757767;79;20935;-89
2021/10/29 03:40:43;;;;;;;33.38;23.70;;;;;;;5.52;88.67;99752.66;1758093;79;20961;-91
2021/10/29 03:45:39;;;;;;;34.92;24.30;;;;;;;5.48;88.62;99751.47;1751177;80;21039;-91
2021/10/29 03:48:02;;;;;;;39.65;25.45;;;;;;;5.46;88.60;99754.12;1726644;81;22188;-90
2021/10/29 03:50:32;;;;;;;35.33;24.70;;;;;;;5.43;88.55;99745.11;1732692;81;21199;-90
2021/10/29 03:53:03;;;;;;;34.08;25.08;;;;;;;5.41;88.59;99746.91;1755754;79;21021;-90
2021/10/29 03:55:39;;;;;;;33.08;24.23;;;;;;;5.38;88.47;99746.99;1761446;80;21072;-91
2021/10/29 03:58:00;;;;;;;40.15;26.25;;;;;;;5.35;88.59;99741.89;1762616;80;20989;-90
2021/10/29 04:00:30;;;;;;;34.95;24.75;;;;;;;5.33;88.57;99739.78;1761227;80;21064;-91
2021/10/29 04:03:03;;;;;;;35.28;24.67;;;;;;;5.31;88.53;99735.08;1762073;80;22170;-91
2021/10/29 04:05:37;;;;;;;32.80;24.43;;;;;;;5.26;88.51;99727.86;1756863;80;21024;-91
2021/10/29 04:08:04;;;;;;;37.20;26.02;;;;;;;5.21;88.49;99724.54;1725325;81;21069;-91
2021/10/29 04:10:32;;;;;;;35.20;25.80;;;;;;;5.18;88.47;99723.33;1740459;81;20913;-91
2021/10/29 04:13:11;;;;;;;33.55;25.25;;;;;;;5.13;88.50;99721.72;1767170;79;21057;-89
2021/10/29 04:15:46;;;;;;;38.63;27.73;;;;;;;5.09;88.52;99720.08;1766824;79;21636;-90
2021/10/29 04:18:19;;;;;;;36.00;26.35;;;;;;;5.05;88.47;99725.39;1747193;80;26797;-89
2021/10/29 04:20:52;;;;;;;39.98;26.87;;;;;;;4.99;88.53;99713.45;1747403;80;21052;-90
2021/10/29 04:23:19;;;;;;;42.30;28.95;;;;;;;4.95;88.58;99719.56;1743911;81;20940;-91
2021/10/29 04:25:46;;;;;;;38.63;26.33;;;;;;;4.93;88.56;99714.45;1746283;80;22066;-91
2021/10/29 04:28:12;;;;;;;37.55;26.48;;;;;;;4.90;88.57;99713.65;1733611;81;21021;-91
2021/10/29 04:30:44;;;;;;;42.70;27.93;;;;;;;4.86;88.54;99710.74;1753022;79;20993;-90
2021/10/29 04:33:13;;;;;;;36.65;27.93;;;;;;;4.82;88.52;99710.42;1744003;81;20996;-89
2021/10/29 04:35:44;;;;;;;39.33;28.60;;;;;;;4.77;88.52;99710.52;1734299;81;21002;-90
2021/10/29 04:38:12;;;;;;;35.43;27.17;;;;;;;4.72;88.50;99703.31;1734359;82;21998;-90
2021/10/29 04:40:40;;;;;;;;;;;;;;;4.69;88.49;99702.94;1735404;81;21020;-91
2021/10/29 04:43:10;;;;;;;42.73;28.38;;;;;;;4.65;88.60;99696.15;1737464;81;20484;-90
2021/10/29 04:45:37;;;;;;;41.95;29.30;;;;;;;4.61;88.64;99694.50;1732898;81;20938;-78
2021/10/29 04:48:05;;;;;;;42.83;29.45;;;;;;;4.58;88.70;99697.16;1732461;81;21005;-78
2021/10/29 04:50:32;;;;;;;37.33;28.47;;;;;;;4.54;88.56;99699.43;1739825;81;21102;-78
2021/10/29 04:52:59;;;;;;;41.95;28.50;;;;;;;4.51;88.65;99694.33;1768346;79;20989;-78
2021/10/29 04:55:31;;;;;;;41.18;30.57;;;;;;;4.47;88.59;99701.73;1764684;79;21076;-82
2021/10/29 04:57:58;;;;;;;41.92;31.02;;;;;;;4.43;88.60;99694.95;1761128;79;21009;-81
2021/10/29 05:00:25;;;;;;;44.77;30.68;;;;;;;4.38;88.56;99699.36;1771945;79;20997;-82
2021/10/29 05:02:54;;;;;;;44.38;31.25;;;;;;;4.34;88.64;99700.30;1764512;80;21528;-82
2021/10/29 05:05:21;;;;;;;43.87;30.92;;;;;;;4.30;88.66;99696.09;1734463;82;21039;-83
2021/10/29 05:07:48;;;;;;;43.35;30.00;;;;;;;4.25;88.64;99694.45;1768330;79;20993;-81
2021/10/29 05:10:17;;;;;;;46.95;31.15;;;;;;;4.22;88.63;99699.69;1766104;79;21001;-80
2021/10/29 05:12:47;;;;;;;42.67;30.35;;;;;;;4.19;88.71;99695.87;1772970;80;20962;-80
2021/10/29 05:15:17;;;;;;;46.05;31.50;;;;;;;4.19;88.82;99696.33;1713707;82;21627;-81
2021/10/29 05:17:47;;;;;;;46.68;32.80;;;;;;;4.20;88.98;99698.89;1691572;82;21039;-82
2021/10/29 05:20:16;;;;;;;45.83;31.20;;;;;;;4.21;88.91;99695.86;1735589;81;21013;-82
2021/10/29 05:22:44;;;;;;;44.55;30.88;;;;;;;4.18;88.80;99698.06;1734093;81;21634;-78
2021/10/29 05:25:12;;;;;;;44.63;33.48;;;;;;;4.16;88.83;99697.23;1726758;82;21012;-79
2021/10/29 05:27:40;;;;;;;50.48;32.98;;;;;;;4.13;88.84;99692.14;1714223;82;21494;-83
2021/10/29 05:30:08;;;;;;;;;;;;;;;4.13;88.84;99696.02;1717192;82;21519;-81
2021/10/29 05:32:37;;;;;;;45.45;32.78;;;;;;;4.11;88.92;99691.31;1736283;81;20206;-80
2021/10/29 05:35:06;;;;;;;45.48;33.05;;;;;;;4.10;88.96;99690.91;1765224;80;21013;-79
2021/10/29 05:37:35;;;;;;;45.83;31.97;;;;;;;4.09;88.84;99690.52;1757019;79;20989;-80
2021/10/29 05:40:05;;;;;;;46.70;32.20;;;;;;;4.06;88.87;99693.14;1744563;81;21933;-79
2021/10/29 05:42:38;;;;;;;46.40;32.38;;;;;;;4.05;88.90;99691.45;1762106;79;21057;-79
2021/10/29 05:45:04;;;;;;;51.65;33.25;;;;;;;4.03;88.86;99684.16;1757561;80;21009;-76
2021/10/29 05:47:33;;;;;;;45.20;33.30;;;;;;;4.01;88.88;99692.41;1757541;80;21042;-76
2021/10/29 05:50:01;;;;;;;50.88;32.78;;;;;;;4.01;88.87;99684.66;1744860;80;21030;-77
2021/10/29 05:52:29;;;;;;;50.10;33.48;;;;;;;4.00;88.85;99686.37;1760620;79;21101;-76
2021/10/29 05:57:24;;;;;;;49.55;33.10;;;;;;;3.96;88.80;99688.63;1749666;80;21041;-76
2021/10/29 05:59:53;;;;;;;53.48;31.25;;;;;;;4.03;89.02;99693.20;1752290;80;21137;-79
2021/10/29 06:02:21;;;;;;;43.63;30.65;;;;;;;4.13;89.12;99694.72;1759920;79;21072;-76
2021/10/29 06:04:48;;;;;;;44.20;31.50;;;;;;;4.24;89.08;99691.91;1757134;79;21119;-79
2021/10/29 06:07:15;;;;;;;41.50;31.37;;;;;;;4.34;88.97;99689.96;1760397;79;20943;-78
2021/10/29 06:09:41;;;;;;;41.08;30.82;;;;;;;4.43;88.88;99682.02;1762861;79;20975;-78
2021/10/29 06:12:09;;;;;;;58.63;36.05;;;;;;;4.56;88.80;99683.41;1761619;79;21053;-78
2021/10/29 06:14:39;;;;;;;;;;;;;;;4.72;88.81;99686.50;1754890;79;21076;-78
2021/10/29 06:17:07;;;;;;;49.88;31.70;;;;;;;4.85;88.64;99687.91;1763365;79;21542;-79
2021/10/29 06:19:34;;;;;;;43.73;29.70;;;;;;;4.98;88.52;99691.02;1760797;80;21327;-79
2021/10/29 06:22:08;;;;;;;43.95;29.42;;;;;;;5.19;88.54;99696.13;1729859;81;21548;-80
2021/10/29 06:24:29;;;;;;;37.55;27.00;;;;;;;5.41;88.48;99684.77;1720619;81;21034;-80
2021/10/29 06:27:03;;;;;;;38.92;27.20;;;;;;;5.60;88.21;99691.14;1736812;81;21106;-81
2021/10/29 06:29:28;;;;;;;43.13;25.77;;;;;;;5.76;88.11;99697.18;1763449;79;21649;-81
2021/10/29 06:31:55;;;;;;;35.30;26.42;;;;;;;5.92;87.85;99697.16;1765279;80;20989;-84
2021/10/29 06:34:22;;;;;;;31.30;21.87;;;;;;;6.04;87.71;99695.53;1763286;79;20981;-82
2021/10/29 06:36:49;;;;;;;30.95;20.97;;;;;;;6.15;87.58;99698.27;1756718;79;20946;-79
2021/10/29 06:39:19;;;;;;;29.67;21.25;;;;;;;6.26;87.51;99698.80;1758517;79;21568;-78
2021/10/29 06:41:47;;;;;;;28.25;21.85;;;;;;;6.39;87.40;99702.72;1766332;79;21098;-76
2021/10/29 06:44:30;;;;;;;28.62;21.15;;;;;;;6.41;87.29;99693.16;1769877;79;21119;-79
2021/10/29 06:49:19;;;;;;;26.55;20.10;;;;;;;6.47;87.62;99698.16;1755304;80;21533;-80
2021/10/29 06:52:08;;;;;;;28.65;21.33;;;;;;;6.52;87.68;99694.55;1761173;79;20995;-79
2021/10/29 07:00:14;;;;;;;27.02;20.52;;;;;;;6.59;87.94;99702.10;1755599;80;21044;-85
2021/10/29 07:05:30;;;;;;;29.82;21.40;;;;;;;6.62;87.92;99705.05;1763827;79;20970;-81
2021/10/29 07:42:25;;;;;;;28.50;21.00;;;;;;;7.52;87.35;99720.69;1731535;82;21071;-78
2021/10/29 07:44:57;;;;;;;30.75;20.00;;;;;;;7.63;87.42;99721.16;1701458;82;21553;-77
2021/10/29 07:47:32;;;;;;;24.20;18.82;;;;;;;7.72;87.30;99720.83;1711952;81;20998;-78
2021/10/29 07:50:13;;;;;;;25.52;20.12;;;;;;;7.76;87.10;99711.19;1714096;82;20976;-78
2021/10/29 07:52:49;;;;;;;30.52;20.68;;;;;;;7.82;86.82;99717.01;1684534;81;21036;-78
2021/10/29 07:55:26;;;;;;;24.00;19.20;;;;;;;7.82;86.86;99715.70;1729791;81;21049;-78
2021/10/29 07:58:13;;;;;;;27.22;19.90;;;;;;;7.93;86.95;99718.37;1717095;81;21036;-79
2021/10/29 08:00:57;;;;;;;25.82;19.30;;;;;;;7.98;86.61;99711.23;1705252;82;21084;-78
2021/10/29 08:03:29;;;;;;;29.72;20.35;;;;;;;8.05;86.74;99710.12;1661411;84;21284;-78
2021/10/29 08:06:09;;;;;;;;;;;;;;;;;;;;;
2021/10/29 08:09:02;;;;;;;30.30;20.35;;;;;;;8.21;86.49;99706.05;1698863;83;21041;-80
2021/10/29 08:11:31;;;;;;;24.75;18.65;;;;;;;8.25;86.37;99701.10;1689530;83;21086;-81
2021/10/29 08:14:24;;;;;;;23.55;18.55;;;;;;;8.36;86.50;99708.97;1662644;83;23659;-82
2021/10/29 08:17:05;;;;;;;21.93;18.07;;;;;;;8.42;86.33;99704.39;1669616;83;21183;-85
2021/10/29 08:19:37;;;;;;;20.77;17.10;;;;;;;8.50;86.15;99704.10;1646042;83;21017;-80
2021/10/29 08:22:09;;;;;;;26.60;19.77;;;;;;;8.62;86.34;99697.56;1690392;83;21066;-81
2021/10/29 08:24:38;;;;;;;23.73;18.25;;;;;;;8.68;86.20;99695.59;1685456;83;21650;-81
2021/10/29 08:27:07;;;;;;;26.70;17.77;;;;;;;8.77;86.15;99689.62;1680610;83;21105;-80
2021/10/29 08:29:38;;;;;;;20.45;16.90;;;;;;;8.80;85.82;99694.23;1697071;83;21396;-80
2021/10/29 08:32:06;;;;;;;23.45;17.48;;;;;;;8.81;85.40;99689.88;1692492;83;20946;-83
2021/10/29 08:34:34;;;;;;;19.12;16.20;;;;;;;8.87;85.48;99689.62;1686058;82;21128;-87
2021/10/29 08:37:03;;;;;;;21.87;17.05;;;;;;;8.91;85.45;99682.93;1732112;81;21159;-90
2021/10/29 08:39:32;;;;;;;23.00;16.40;;;;;;;8.97;85.41;99680.53;1729149;81;21070;-93
2021/10/29 08:42:00;;;;;;;21.82;17.42;;;;;;;9.06;85.60;99685.34;1761267;79;21136;-93
2021/10/29 08:44:28;;;;;;;21.50;16.75;;;;;;;9.13;85.41;99680.72;1759570;79;21012;-88
2021/10/29 08:47:01;;;;;;;19.40;16.20;;;;;;;9.18;84.84;99673.10;1759218;79;21215;-77
2021/10/29 08:49:31;;;;;;;23.52;16.62;;;;;;;9.22;85.00;99682.12;1749245;79;21562;-82
2021/10/29 08:52:00;;;;;;;26.62;17.17;;;;;;;9.27;85.03;99674.92;1730200;79;21077;-76
2021/10/29 08:54:34;;;;;;;28.45;17.75;;;;;;;9.34;84.79;99672.47;1758460;79;21292;-85
2021/10/29 08:57:02;;;;;;;20.37;15.78;;;;;;;9.41;85.00;99671.30;1762253;79;21372;-84
2021/10/29 08:59:33;;;;;;;20.75;15.32;;;;;;;9.50;84.79;99672.20;1760458;79;20921;-85
2021/10/29 09:02:28;;;;;;;22.82;17.77;;;;;;;9.63;84.80;99675.97;1758564;79;20988;-83
2021/10/29 09:04:58;;;;;;;27.17;16.65;;;;;;;9.72;84.71;99679.05;1748880;80;21053;-83
2021/10/29 09:31:23;;;;;;;23.55;14.63;;;;;;;9.96;84.06;99667.52;1746261;80;21781;-87
2021/10/29 09:32:55;;;;;;;20.72;15.60;;;;;;;10.09;83.45;99667.83;1759042;79;21040;-85
2021/10/29 09:35:17;;;;;;;19.55;15.53;;;;;;;10.15;83.54;99657.56;1751593;79;21094;-85
2021/10/29 09:38:01;;;;;;;19.98;15.25;;;;;;;10.24;83.24;99657.96;1758617;79;21599;-81
2021/10/29 09:40:35;;;;;;;19.57;15.28;;;;;;;10.33;83.33;99665.84;1736753;81;20999;-81
2021/10/29 09:43:17;;;;;;;19.17;14.95;;;;;;;10.44;83.27;99661.43;1752012;80;21590;-79
2021/10/29 09:46:06;;;;;;;19.10;14.78;;;;;;;10.55;83.31;99660.45;1761700;79;20981;-80
2021/10/29 09:48:45;;;;;;;19.12;15.08;;;;;;;10.60;82.98;99660.25;1800311;78;21208;-78
2021/10/29 09:51:12;;;;;;;22.80;14.95;;;;;;;10.62;82.64;99663.64;1751929;80;20998;-78
2021/10/29 09:56:13;;;;;;;31.07;16.20;;;;;;;10.71;82.56;99661.41;1779599;79;21036;-79
2021/10/29 09:58:52;;;;;;;22.82;15.40;;;;;;;10.75;82.48;99662.09;1779063;80;20985;-81
2021/10/29 10:01:23;;;;;;;24.12;15.93;;;;;;;10.76;82.42;99659.89;1785548;79;21073;-82
2021/10/29 10:03:51;;;;;;;22.87;15.43;;;;;;;10.84;82.33;99657.75;1796995;78;21547;-81
2021/10/29 10:06:25;;;;;;;24.52;16.37;;;;;;;10.87;82.22;99653.68;1797532;78;21028;-80
2021/10/29 10:08:54;;;;;;;20.95;14.98;;;;;;;10.90;82.10;99650.91;1796144;78;21071;-79
2021/10/29 10:11:25;;;;;;;17.92;14.47;;;;;;;10.95;81.87;99648.92;1794475;78;21036;-78
2021/10/29 10:13:54;;;;;;;22.48;14.87;;;;;;;10.98;81.88;99650.53;1768636;80;21058;-80
2021/10/29 10:16:22;;;;;;;18.37;14.85;;;;;;;11.01;81.46;99644.28;1773742;80;21048;-75
2021/10/29 10:18:49;;;;;;;23.98;15.20;;;;;;;11.03;81.59;99647.67;1779374;79;21007;-81
2021/10/29 10:21:20;;;;;;;22.35;16.52;;;;;;;11.06;81.45;99651.44;1791899;78;21087;-81
2021/10/29 10:23:50;;;;;;;19.15;14.95;;;;;;;11.10;81.56;99645.15;1799673;78;21032;-81
2021/10/29 10:43:07;;;;;;;20.00;14.43;;;;;;;11.36;80.71;99640.73;1804967;78;21044;-81
2021/10/29 10:45:46;;;;;;;23.87;15.65;;;;;;;11.36;80.48;99631.58;1754822;80;21015;-80
2021/10/29 10:48:23;;;;;;;19.75;14.65;;;;;;;11.38;80.39;99633.66;1798407;78;21092;-79
2021/10/29 10:50:52;;;;;;;19.52;14.75;;;;;;;11.42;80.44;99629.11;1795456;78;21055;-78
2021/10/29 10:53:43;;;;;;;25.90;14.45;;;;;;;11.47;80.28;99621.88;1796463;78;21253;-78
2021/10/29 10:56:25;;;;;;;15.00;12.33;;;;;;;11.49;80.19;99632.27;1793511;78;27465;-80
2021/10/29 10:59:28;;;;;;;17.30;14.25;;;;;;;11.55;80.01;99625.40;1772353;78;21536;-78
2021/10/29 11:10:32;;;;;;;21.68;13.83;;;;;;;11.73;79.29;99628.33;1669181;82;21135;-76
2021/10/29 11:13:09;;;;;;;20.72;13.45;;;;;;;11.73;79.46;99624.41;1633812;85;21089;-74
2021/10/29 11:15:55;;;;;;;19.27;13.40;;;;;;;11.78;79.30;99617.16;1660030;85;21128;-79
2021/10/29 11:18:35;;;;;;;18.77;14.03;;;;;;;11.79;78.96;99611.45;1597780;87;21380;-78
2021/10/29 11:21:33;;;;;;;15.15;13.15;;;;;;;11.81;79.02;99618.30;1555572;88;21128;-79
2021/10/29 11:24:03;;;;;;;22.85;13.50;;;;;;;11.81;78.65;99605.22;1582920;88;21242;-76
2021/10/29 11:26:53;;;;;;;22.07;12.88;;;;;;;11.85;78.94;99608.53;1627734;86;21059;-76
2021/10/29 11:29:35;;;;;;;16.97;12.63;;;;;;;11.89;78.78;99609.23;1606491;87;21132;-77
2021/10/29 11:32:11;;;;;;;16.02;12.98;;;;;;;11.93;78.59;99611.61;1592671;87;21077;-77
2021/10/29 11:34:47;;;;;;;19.05;12.82;;;;;;;11.95;78.40;99606.28;1595785;88;21871;-79
2021/10/29 11:37:41;;;;;;;17.35;12.82;;;;;;;12.01;78.53;99611.17;1590501;88;21111;-80
2021/10/29 11:40:13;;;;;;;20.45;13.40;;;;;;;12.06;78.27;99607.84;1590609;88;21168;-80
2021/10/29 11:42:37;;;;;;;20.60;13.43;;;;;;;12.05;78.34;99599.16;1592531;88;21203;-76
2021/10/29 11:45:05;;;;;;;17.92;13.08;;;;;;;12.08;78.13;99602.06;1595371;88;21071;-71
2021/10/29 11:47:32;;;;;;;20.02;14.28;;;;;;;12.09;77.84;99602.44;1572605;88;21094;-70
2021/10/29 11:50:11;;;;;;;15.85;12.47;;;;;;;12.08;77.88;99594.22;1593219;88;21082;-69
2021/10/29 11:52:44;;;;;;;19.32;14.25;;;;;;;12.07;77.57;99597.74;1596175;88;21060;-71
2021/10/29 11:56:24;;;;;;;18.92;13.85;;;;;;;12.03;76.91;99589.23;1592675;88;21226;-72
2021/10/29 11:58:08;;;;;;;21.62;14.25;;;;;;;12.00;77.49;99596.41;1592854;85;21663;-71
2021/10/29 12:00:46;;;;;;;21.73;14.45;;;;;;;12.04;77.39;99595.30;1648792;85;21584;-71
2021/10/29 12:05:55;;;;;;;16.67;13.88;;;;;;;12.07;77.20;99599.05;1652637;84;21038;-71
2021/10/29 12:08:27;;;;;;;29.07;14.25;;;;;;;12.07;77.11;99595.13;1648951;82;21187;-71
2021/10/29 12:13:52;;;;;;;16.17;12.68;;;;;;;12.05;76.80;99586.54;1731378;81;21225;-71
2021/10/29 12:16:22;;;;;;;17.65;12.40;;;;;;;12.01;76.67;99581.08;1727714;81;21067;-71
2021/10/29 12:19:08;;;;;;;19.00;13.43;;;;;;;12.02;76.67;99584.94;1738093;81;21568;-72
2021/10/29 12:21:40;;;;;;;16.12;12.95;;;;;;;12.02;76.62;99592.78;1732083;81;20995;-71
2021/10/29 12:24:05;;;;;;;23.60;13.80;;;;;;;12.02;76.49;99591.95;1729423;81;21073;-70
2021/10/29 12:26:37;;;;;;;17.30;13.05;;;;;;;12.03;76.53;99592.31;1703267;82;21249;-70
2021/10/29 12:29:01;;;;;;;42.48;14.83;;;;;;;12.06;76.58;99588.22;1730566;81;21058;-70
2021/10/29 12:31:49;;;;;;;20.17;14.63;;;;;;;12.09;76.61;99585.42;1725661;81;20909;-70
2021/10/29 12:34:42;;;;;;;19.45;13.40;;;;;;;12.09;76.17;99580.19;1727844;81;20941;-71
2021/10/29 12:37:26;;;;;;;22.62;13.78;;;;;;;12.02;76.12;99574.47;1703599;82;21049;-71
2021/10/29 12:53:27;;;;;;;16.93;13.25;;;;;;;11.78;75.64;99560.92;1662162;85;21170;-71
2021/10/29 13:01:32;;;;;;;26.23;14.13;;;;;;;11.78;75.73;99558.30;1667444;85;20969;-69
2021/10/29 13:06:55;;;;;;;20.92;14.50;;;;;;;11.82;75.47;99556.39;1805303;76;22604;-72
2021/10/29 13:09:28;;;;;;;21.07;14.83;;;;;;;11.77;75.47;99562.33;1761066;79;20918;-71
2021/10/29 13:12:02;;;;;;;24.43;14.87;;;;;;;11.74;75.38;99562.03;1729229;81;22287;-71
2021/10/29 13:14:35;;;;;;;28.47;14.75;;;;;;;11.73;75.40;99560.32;1727314;81;21077;-71
2021/10/29 13:17:04;;;;;;;24.18;14.47;;;;;;;11.72;75.33;99558.64;1696777;82;21033;-71
2021/10/29 13:19:42;;;;;;;18.77;14.45;;;;;;;11.69;75.31;99558.81;1729310;81;21025;-72
2021/10/29 13:25:14;;;;;;;21.07;15.30;;;;;;;11.66;75.28;99561.59;1723784;81;21071;-72
2021/10/29 13:52:08;;;;;;;29.20;15.83;;;;;;;11.28;74.78;99547.95;1652008;85;21158;-73
2021/10/29 14:29:28;;;;;;;20.30;14.35;;;;;;;10.44;74.43;99547.42;1699102;83;21072;-71
2021/10/29 14:31:55;;;;;;;19.62;13.68;;;;;;;10.35;74.30;99540.52;1690913;83;21102;-71
2021/10/29 14:34:25;;;;;;;20.40;14.78;;;;;;;10.26;74.36;99544.39;1691346;83;21588;-71
2021/10/29 14:39:29;;;;;;;26.17;14.50;;;;;;;10.11;74.45;99541.20;1693354;83;21017;-69
2021/10/29 14:42:14;;;;;;;25.27;14.65;;;;;;;10.02;74.47;99535.52;1694379;83;21037;-70
2021/10/29 14:44:43;;;;;;;24.25;15.05;;;;;;;9.91;74.50;99543.00;1693144;83;21101;-70
2021/10/29 14:47:18;;;;;;;19.65;15.08;;;;;;;9.79;74.51;99544.89;1690276;83;21022;-69
2021/10/29 14:49:57;;;;;;;23.83;16.17;;;;;;;9.67;74.43;99548.09;1690350;83;21068;-71
2021/10/29 15:01:03;;;;;;;29.00;16.50;;;;;;;9.18;74.53;99557.17;1668778;83;21693;-71
2021/10/29 15:16:41;;;;;;;18.75;15.28;;;;;;;8.50;74.73;99575.30;1693843;82;20976;-71
2021/10/29 15:32:41;;;;;;;25.75;17.73;;;;;;;7.77;74.98;99578.56;1599093;89;21145;-70
2021/10/29 15:41:07;;;;;;;27.17;16.87;;;;;;;7.69;75.02;99570.20;1593700;88;21687;-70
2021/10/29 15:45:49;;;;;;;27.50;19.70;;;;;;;7.42;75.25;99572.53;1598454;88;21027;-69
2021/10/29 15:48:23;;;;;;;25.00;16.55;;;;;;;7.34;75.34;99572.38;1595490;88;21649;-69
2021/10/29 15:50:48;;;;;;;27.60;19.67;;;;;;;7.31;75.42;99569.89;1574711;88;21173;-69
2021/10/29 15:53:15;;;;;;;29.10;20.17;;;;;;;7.29;75.41;99576.04;1593680;88;21607;-69